sensor_id;sensor_type;location;lat;lon;timestamp;P1;durP1;ratioP1;P2;durP2;ratioP2
3601;SDS011;1815;50.950;6.920;2022-11-13T00:01:30;7.93;;;7.07;;
3601;SDS011;1815;50.950;6.920;2022-11-13T00:04:14;7.53;;;6.70;;
3601;SDS011;1815;50.950;6.920;2022-11-13T00:06:59;7.20;;;6.50;;
3601;SDS011;1815;50.950;6.920;2022-11-13T00:09:43;7.90;;;6.47;;
3601;SDS011;1815;50.950;6.920;2022-11-13T00:12:28;7.80;;;7.00;;
3601;SDS011;1815;50.950;6.920;2022-11-13T00:15:12;7.20;;;6.07;;
3601;SDS011;1815;50.950;6.920;2022-11-13T00:17:59;6.75;;;5.00;;
3601;SDS011;1815;50.950;6.920;2022-11-13T00:20:44;8.32;;;5.95;;
3601;SDS011;1815;50.950;6.920;2022-11-13T00:23:30;7.75;;;5.90;;
3601;SDS011;1815;50.950;6.920;2022-11-13T00:26:18;5.95;;;5.35;;
3601;SDS011;1815;50.950;6.920;2022-11-13T00:29:04;6.43;;;5.65;;
3601;SDS011;1815;50.950;6.920;2022-11-13T00:31:48;5.45;;;4.90;;
3601;SDS011;1815;50.950;6.920;2022-11-13T00:34:33;6.20;;;5.60;;
3601;SDS011;1815;50.950;6.920;2022-11-13T00:37:17;6.90;;;5.00;;
3601;SDS011;1815;50.950;6.920;2022-11-13T00:40:02;5.03;;;4.53;;
3601;SDS011;1815;50.950;6.920;2022-11-13T00:42:46;6.07;;;5.15;;
3601;SDS011;1815;50.950;6.920;2022-11-13T00:45:31;6.68;;;5.30;;
3601;SDS011;1815;50.950;6.920;2022-11-13T00:48:14;6.00;;;5.50;;
3601;SDS011;1815;50.950;6.920;2022-11-13T00:50:59;5.50;;;4.65;;
3601;SDS011;1815;50.950;6.920;2022-11-13T00:53:43;6.03;;;5.30;;
3601;SDS011;1815;50.950;6.920;2022-11-13T00:56:28;5.72;;;5.18;;
3601;SDS011;1815;50.950;6.920;2022-11-13T00:59:12;7.70;;;5.55;;
3601;SDS011;1815;50.950;6.920;2022-11-13T01:01:57;6.35;;;5.50;;
3601;SDS011;1815;50.950;6.920;2022-11-13T01:04:41;5.50;;;4.85;;
3601;SDS011;1815;50.950;6.920;2022-11-13T01:07:25;6.50;;;5.80;;
3601;SDS011;1815;50.950;6.920;2022-11-13T01:10:10;6.13;;;5.53;;
3601;SDS011;1815;50.950;6.920;2022-11-13T01:12:55;8.80;;;5.93;;
3601;SDS011;1815;50.950;6.920;2022-11-13T01:15:40;5.60;;;4.90;;
3601;SDS011;1815;50.950;6.920;2022-11-13T01:18:25;4.80;;;4.30;;
3601;SDS011;1815;50.950;6.920;2022-11-13T01:21:13;5.40;;;4.80;;
3601;SDS011;1815;50.950;6.920;2022-11-13T01:24:00;4.30;;;3.90;;
3601;SDS011;1815;50.950;6.920;2022-11-13T01:26:44;5.97;;;4.53;;
3601;SDS011;1815;50.950;6.920;2022-11-13T01:29:28;4.75;;;4.35;;
3601;SDS011;1815;50.950;6.920;2022-11-13T01:32:13;4.90;;;4.15;;
3601;SDS011;1815;50.950;6.920;2022-11-13T01:34:58;4.75;;;4.13;;
3601;SDS011;1815;50.950;6.920;2022-11-13T01:37:42;5.03;;;4.60;;
3601;SDS011;1815;50.950;6.920;2022-11-13T01:40:26;5.10;;;4.60;;
3601;SDS011;1815;50.950;6.920;2022-11-13T01:43:16;4.28;;;3.55;;
3601;SDS011;1815;50.950;6.920;2022-11-13T01:46:08;5.78;;;4.30;;
3601;SDS011;1815;50.950;6.920;2022-11-13T01:52:02;5.15;;;4.65;;
3601;SDS011;1815;50.950;6.920;2022-11-13T01:54:55;5.50;;;4.07;;
3601;SDS011;1815;50.950;6.920;2022-11-13T01:57:43;8.70;;;4.72;;
3601;SDS011;1815;50.950;6.920;2022-11-13T02:00:27;5.95;;;5.10;;
3601;SDS011;1815;50.950;6.920;2022-11-13T02:03:11;4.20;;;3.80;;
3601;SDS011;1815;50.950;6.920;2022-11-13T02:05:55;5.05;;;4.45;;
3601;SDS011;1815;50.950;6.920;2022-11-13T02:08:39;7.32;;;4.63;;
3601;SDS011;1815;50.950;6.920;2022-11-13T02:11:25;5.43;;;4.72;;
3601;SDS011;1815;50.950;6.920;2022-11-13T02:14:10;4.55;;;4.15;;
3601;SDS011;1815;50.950;6.920;2022-11-13T02:16:57;5.43;;;4.75;;
3601;SDS011;1815;50.950;6.920;2022-11-13T02:19:46;6.00;;;4.70;;
3601;SDS011;1815;50.950;6.920;2022-11-13T02:22:39;8.20;;;5.35;;
3601;SDS011;1815;50.950;6.920;2022-11-13T02:25:30;5.70;;;5.05;;
3601;SDS011;1815;50.950;6.920;2022-11-13T02:28:16;5.43;;;4.93;;
3601;SDS011;1815;50.950;6.920;2022-11-13T02:31:10;5.82;;;5.22;;
3601;SDS011;1815;50.950;6.920;2022-11-13T02:33:56;5.97;;;5.38;;
3601;SDS011;1815;50.950;6.920;2022-11-13T02:36:40;5.72;;;5.22;;
3601;SDS011;1815;50.950;6.920;2022-11-13T02:39:24;5.70;;;5.05;;
3601;SDS011;1815;50.950;6.920;2022-11-13T02:42:08;4.90;;;4.43;;
3601;SDS011;1815;50.950;6.920;2022-11-13T02:44:52;5.60;;;5.10;;
3601;SDS011;1815;50.950;6.920;2022-11-13T02:47:36;8.35;;;5.80;;
3601;SDS011;1815;50.950;6.920;2022-11-13T02:50:21;6.13;;;5.53;;
3601;SDS011;1815;50.950;6.920;2022-11-13T02:53:05;5.53;;;5.00;;
3601;SDS011;1815;50.950;6.920;2022-11-13T02:55:50;6.07;;;5.32;;
3601;SDS011;1815;50.950;6.920;2022-11-13T02:58:34;5.63;;;4.93;;
3601;SDS011;1815;50.950;6.920;2022-11-13T03:01:18;5.13;;;4.32;;
3601;SDS011;1815;50.950;6.920;2022-11-13T03:04:03;5.80;;;4.57;;
3601;SDS011;1815;50.950;6.920;2022-11-13T03:06:47;5.68;;;5.07;;
3601;SDS011;1815;50.950;6.920;2022-11-13T03:09:31;5.85;;;5.25;;
3601;SDS011;1815;50.950;6.920;2022-11-13T03:12:16;5.88;;;5.30;;
3601;SDS011;1815;50.950;6.920;2022-11-13T03:15:00;5.15;;;4.65;;
3601;SDS011;1815;50.950;6.920;2022-11-13T03:17:45;5.15;;;4.70;;
3601;SDS011;1815;50.950;6.920;2022-11-13T03:20:29;5.45;;;4.63;;
3601;SDS011;1815;50.950;6.920;2022-11-13T03:23:14;5.80;;;4.57;;
3601;SDS011;1815;50.950;6.920;2022-11-13T03:26:02;5.07;;;4.43;;
3601;SDS011;1815;50.950;6.920;2022-11-13T03:28:48;5.03;;;4.53;;
3601;SDS011;1815;50.950;6.920;2022-11-13T03:31:33;5.53;;;4.72;;
3601;SDS011;1815;50.950;6.920;2022-11-13T03:34:17;6.18;;;4.88;;
3601;SDS011;1815;50.950;6.920;2022-11-13T03:37:01;5.65;;;4.03;;
3601;SDS011;1815;50.950;6.920;2022-11-13T03:39:46;5.80;;;5.20;;
3601;SDS011;1815;50.950;6.920;2022-11-13T03:42:30;6.63;;;5.70;;
3601;SDS011;1815;50.950;6.920;2022-11-13T03:45:14;5.75;;;5.05;;
3601;SDS011;1815;50.950;6.920;2022-11-13T03:47:58;5.25;;;4.30;;
3601;SDS011;1815;50.950;6.920;2022-11-13T03:50:44;5.78;;;5.18;;
3601;SDS011;1815;50.950;6.920;2022-11-13T03:53:31;6.70;;;5.57;;
3601;SDS011;1815;50.950;6.920;2022-11-13T03:56:15;6.00;;;5.35;;
3601;SDS011;1815;50.950;6.920;2022-11-13T03:59:00;6.05;;;4.78;;
3601;SDS011;1815;50.950;6.920;2022-11-13T04:01:44;4.63;;;4.20;;
3601;SDS011;1815;50.950;6.920;2022-11-13T04:04:29;4.60;;;4.00;;
3601;SDS011;1815;50.950;6.920;2022-11-13T04:07:13;6.28;;;4.35;;
3601;SDS011;1815;50.950;6.920;2022-11-13T04:09:58;5.07;;;4.50;;
3601;SDS011;1815;50.950;6.920;2022-11-13T04:12:42;5.75;;;5.25;;
3601;SDS011;1815;50.950;6.920;2022-11-13T04:15:26;5.50;;;4.75;;
3601;SDS011;1815;50.950;6.920;2022-11-13T04:18:10;5.25;;;4.30;;
3601;SDS011;1815;50.950;6.920;2022-11-13T04:20:58;5.47;;;4.72;;
3601;SDS011;1815;50.950;6.920;2022-11-13T04:23:47;4.70;;;4.00;;
3601;SDS011;1815;50.950;6.920;2022-11-13T04:26:31;5.13;;;4.55;;
3601;SDS011;1815;50.950;6.920;2022-11-13T04:29:16;4.80;;;4.30;;
3601;SDS011;1815;50.950;6.920;2022-11-13T04:32:00;5.40;;;4.90;;
3601;SDS011;1815;50.950;6.920;2022-11-13T04:34:44;6.13;;;4.85;;
3601;SDS011;1815;50.950;6.920;2022-11-13T04:37:29;4.55;;;4.10;;
3601;SDS011;1815;50.950;6.920;2022-11-13T04:40:13;3.58;;;3.28;;
3601;SDS011;1815;50.950;6.920;2022-11-13T04:42:58;5.32;;;4.72;;
3601;SDS011;1815;50.950;6.920;2022-11-13T04:45:42;4.80;;;4.00;;
3601;SDS011;1815;50.950;6.920;2022-11-13T04:48:26;5.97;;;4.57;;
3601;SDS011;1815;50.950;6.920;2022-11-13T04:51:10;3.85;;;3.33;;
3601;SDS011;1815;50.950;6.920;2022-11-13T04:53:55;4.72;;;4.13;;
3601;SDS011;1815;50.950;6.920;2022-11-13T04:56:40;5.30;;;4.00;;
3601;SDS011;1815;50.950;6.920;2022-11-13T04:59:24;4.28;;;3.70;;
3601;SDS011;1815;50.950;6.920;2022-11-13T05:02:09;5.00;;;4.22;;
3601;SDS011;1815;50.950;6.920;2022-11-13T05:04:53;4.47;;;4.07;;
3601;SDS011;1815;50.950;6.920;2022-11-13T05:07:37;5.90;;;5.28;;
3601;SDS011;1815;50.950;6.920;2022-11-13T05:10:21;4.88;;;4.38;;
3601;SDS011;1815;50.950;6.920;2022-11-13T05:13:06;6.50;;;5.80;;
3601;SDS011;1815;50.950;6.920;2022-11-13T05:15:50;4.30;;;3.90;;
3601;SDS011;1815;50.950;6.920;2022-11-13T05:18:42;5.55;;;5.05;;
3601;SDS011;1815;50.950;6.920;2022-11-13T05:21:27;4.93;;;4.47;;
3601;SDS011;1815;50.950;6.920;2022-11-13T05:24:11;4.25;;;3.85;;
3601;SDS011;1815;50.950;6.920;2022-11-13T05:26:55;6.68;;;3.95;;
3601;SDS011;1815;50.950;6.920;2022-11-13T05:29:40;6.22;;;4.15;;
3601;SDS011;1815;50.950;6.920;2022-11-13T05:32:24;4.63;;;4.07;;
3601;SDS011;1815;50.950;6.920;2022-11-13T05:35:08;7.70;;;3.70;;
3601;SDS011;1815;50.950;6.920;2022-11-13T05:37:52;3.72;;;3.40;;
3601;SDS011;1815;50.950;6.920;2022-11-13T05:40:37;4.97;;;4.47;;
3601;SDS011;1815;50.950;6.920;2022-11-13T05:43:21;3.50;;;2.97;;
3601;SDS011;1815;50.950;6.920;2022-11-13T05:46:06;4.25;;;3.85;;
3601;SDS011;1815;50.950;6.920;2022-11-13T05:48:56;3.90;;;3.47;;
3601;SDS011;1815;50.950;6.920;2022-11-13T05:51:42;3.78;;;3.05;;
3601;SDS011;1815;50.950;6.920;2022-11-13T05:54:27;4.57;;;3.50;;
3601;SDS011;1815;50.950;6.920;2022-11-13T05:57:11;4.82;;;3.60;;
3601;SDS011;1815;50.950;6.920;2022-11-13T05:59:55;4.30;;;3.90;;
3601;SDS011;1815;50.950;6.920;2022-11-13T06:02:39;4.18;;;3.80;;
3601;SDS011;1815;50.950;6.920;2022-11-13T06:05:24;4.20;;;3.83;;
3601;SDS011;1815;50.950;6.920;2022-11-13T06:08:08;3.83;;;2.80;;
3601;SDS011;1815;50.950;6.920;2022-11-13T06:10:56;3.95;;;2.95;;
3601;SDS011;1815;50.950;6.920;2022-11-13T06:13:42;3.63;;;3.10;;
3601;SDS011;1815;50.950;6.920;2022-11-13T06:16:33;3.83;;;3.45;;
3601;SDS011;1815;50.950;6.920;2022-11-13T06:19:20;5.05;;;3.20;;
3601;SDS011;1815;50.950;6.920;2022-11-13T06:22:04;3.88;;;3.10;;
3601;SDS011;1815;50.950;6.920;2022-11-13T06:24:48;4.32;;;3.00;;
3601;SDS011;1815;50.950;6.920;2022-11-13T06:27:33;3.15;;;2.78;;
3601;SDS011;1815;50.950;6.920;2022-11-13T06:30:17;4.35;;;3.30;;
3601;SDS011;1815;50.950;6.920;2022-11-13T06:33:01;3.45;;;3.00;;
3601;SDS011;1815;50.950;6.920;2022-11-13T06:35:46;5.90;;;3.45;;
3601;SDS011;1815;50.950;6.920;2022-11-13T06:38:33;4.95;;;2.78;;
3601;SDS011;1815;50.950;6.920;2022-11-13T06:41:20;4.10;;;3.30;;
3601;SDS011;1815;50.950;6.920;2022-11-13T06:44:06;3.72;;;3.00;;
3601;SDS011;1815;50.950;6.920;2022-11-13T06:46:50;4.97;;;2.67;;
3601;SDS011;1815;50.950;6.920;2022-11-13T06:49:35;2.90;;;2.60;;
3601;SDS011;1815;50.950;6.920;2022-11-13T06:52:19;6.72;;;3.20;;
3601;SDS011;1815;50.950;6.920;2022-11-13T06:55:03;3.22;;;2.35;;
3601;SDS011;1815;50.950;6.920;2022-11-13T06:57:48;3.63;;;3.33;;
3601;SDS011;1815;50.950;6.920;2022-11-13T07:00:32;2.88;;;2.22;;
3601;SDS011;1815;50.950;6.920;2022-11-13T07:06:03;3.00;;;2.60;;
3601;SDS011;1815;50.950;6.920;2022-11-13T07:08:49;4.13;;;2.70;;
3601;SDS011;1815;50.950;6.920;2022-11-13T07:11:35;2.50;;;2.30;;
3601;SDS011;1815;50.950;6.920;2022-11-13T07:14:19;2.47;;;2.20;;
3601;SDS011;1815;50.950;6.920;2022-11-13T07:17:03;3.78;;;2.20;;
3601;SDS011;1815;50.950;6.920;2022-11-13T07:19:48;2.65;;;2.00;;
3601;SDS011;1815;50.950;6.920;2022-11-13T07:22:32;3.15;;;2.47;;
3601;SDS011;1815;50.950;6.920;2022-11-13T07:25:16;3.15;;;2.25;;
3601;SDS011;1815;50.950;6.920;2022-11-13T07:28:00;2.90;;;2.25;;
3601;SDS011;1815;50.950;6.920;2022-11-13T07:30:45;3.15;;;2.28;;
3601;SDS011;1815;50.950;6.920;2022-11-13T07:33:29;4.03;;;2.45;;
3601;SDS011;1815;50.950;6.920;2022-11-13T07:36:13;2.90;;;2.30;;
3601;SDS011;1815;50.950;6.920;2022-11-13T07:38:58;3.35;;;2.08;;
3601;SDS011;1815;50.950;6.920;2022-11-13T07:41:42;2.17;;;1.80;;
3601;SDS011;1815;50.950;6.920;2022-11-13T07:44:27;3.20;;;2.20;;
3601;SDS011;1815;50.950;6.920;2022-11-13T07:47:11;2.63;;;2.25;;
3601;SDS011;1815;50.950;6.920;2022-11-13T07:49:56;2.10;;;1.90;;
3601;SDS011;1815;50.950;6.920;2022-11-13T07:52:40;2.85;;;2.10;;
3601;SDS011;1815;50.950;6.920;2022-11-13T07:55:25;3.22;;;2.10;;
3601;SDS011;1815;50.950;6.920;2022-11-13T07:58:09;3.60;;;2.17;;
3601;SDS011;1815;50.950;6.920;2022-11-13T08:00:54;2.35;;;1.90;;
3601;SDS011;1815;50.950;6.920;2022-11-13T08:03:38;2.90;;;2.45;;
3601;SDS011;1815;50.950;6.920;2022-11-13T08:06:22;2.60;;;2.30;;
3601;SDS011;1815;50.950;6.920;2022-11-13T08:09:07;2.70;;;2.30;;
3601;SDS011;1815;50.950;6.920;2022-11-13T08:11:51;2.22;;;1.73;;
3601;SDS011;1815;50.950;6.920;2022-11-13T08:14:35;3.08;;;2.35;;
3601;SDS011;1815;50.950;6.920;2022-11-13T08:17:20;3.45;;;1.90;;
3601;SDS011;1815;50.950;6.920;2022-11-13T08:20:05;2.90;;;2.10;;
3601;SDS011;1815;50.950;6.920;2022-11-13T08:22:50;2.35;;;2.13;;
3601;SDS011;1815;50.950;6.920;2022-11-13T08:25:35;3.15;;;2.08;;
3601;SDS011;1815;50.950;6.920;2022-11-13T08:28:19;2.67;;;2.10;;
3601;SDS011;1815;50.950;6.920;2022-11-13T08:31:04;2.50;;;1.73;;
3601;SDS011;1815;50.950;6.920;2022-11-13T08:33:54;3.13;;;2.30;;
3601;SDS011;1815;50.950;6.920;2022-11-13T08:36:38;4.30;;;2.72;;
3601;SDS011;1815;50.950;6.920;2022-11-13T08:39:22;3.40;;;2.30;;
3601;SDS011;1815;50.950;6.920;2022-11-13T08:42:07;4.95;;;2.25;;
3601;SDS011;1815;50.950;6.920;2022-11-13T08:44:51;3.55;;;2.60;;
3601;SDS011;1815;50.950;6.920;2022-11-13T08:47:35;3.00;;;1.80;;
3601;SDS011;1815;50.950;6.920;2022-11-13T08:50:20;3.30;;;2.50;;
3601;SDS011;1815;50.950;6.920;2022-11-13T08:53:04;3.50;;;2.63;;
3601;SDS011;1815;50.950;6.920;2022-11-13T08:55:49;2.95;;;2.40;;
3601;SDS011;1815;50.950;6.920;2022-11-13T08:58:34;4.45;;;2.25;;
3601;SDS011;1815;50.950;6.920;2022-11-13T09:01:18;3.78;;;2.13;;
3601;SDS011;1815;50.950;6.920;2022-11-13T09:04:05;3.25;;;2.80;;
3601;SDS011;1815;50.950;6.920;2022-11-13T09:06:49;2.58;;;2.00;;
3601;SDS011;1815;50.950;6.920;2022-11-13T09:09:35;3.30;;;2.03;;
3601;SDS011;1815;50.950;6.920;2022-11-13T09:12:19;2.33;;;1.70;;
3601;SDS011;1815;50.950;6.920;2022-11-13T09:15:04;3.03;;;2.17;;
3601;SDS011;1815;50.950;6.920;2022-11-13T09:17:48;3.85;;;2.28;;
3601;SDS011;1815;50.950;6.920;2022-11-13T09:20:32;3.05;;;2.50;;
3601;SDS011;1815;50.950;6.920;2022-11-13T09:23:17;2.72;;;2.03;;
3601;SDS011;1815;50.950;6.920;2022-11-13T09:26:01;2.00;;;1.48;;
3601;SDS011;1815;50.950;6.920;2022-11-13T09:28:46;3.03;;;2.10;;
3601;SDS011;1815;50.950;6.920;2022-11-13T09:31:30;2.95;;;1.77;;
3601;SDS011;1815;50.950;6.920;2022-11-13T09:34:15;2.60;;;2.25;;
3601;SDS011;1815;50.950;6.920;2022-11-13T09:36:59;2.90;;;1.80;;
3601;SDS011;1815;50.950;6.920;2022-11-13T09:39:45;3.25;;;1.80;;
3601;SDS011;1815;50.950;6.920;2022-11-13T09:42:29;2.20;;;1.60;;
3601;SDS011;1815;50.950;6.920;2022-11-13T09:45:15;4.07;;;2.13;;
3601;SDS011;1815;50.950;6.920;2022-11-13T09:51:15;1.97;;;1.30;;
3601;SDS011;1815;50.950;6.920;2022-11-13T09:54:03;1.97;;;1.37;;
3601;SDS011;1815;50.950;6.920;2022-11-13T10:02:57;3.80;;;1.60;;
3601;SDS011;1815;50.950;6.920;2022-11-13T10:05:49;2.40;;;1.43;;
3601;SDS011;1815;50.950;6.920;2022-11-13T10:08:50;1.93;;;1.17;;
3601;SDS011;1815;50.950;6.920;2022-11-13T10:11:41;1.63;;;1.07;;
3601;SDS011;1815;50.950;6.920;2022-11-13T10:14:33;5.07;;;1.10;;
3601;SDS011;1815;50.950;6.920;2022-11-13T10:17:32;3.37;;;1.47;;
3601;SDS011;1815;50.950;6.920;2022-11-13T10:20:33;2.53;;;1.30;;
3601;SDS011;1815;50.950;6.920;2022-11-13T10:23:36;2.03;;;1.30;;
3601;SDS011;1815;50.950;6.920;2022-11-13T10:26:22;3.30;;;1.20;;
3601;SDS011;1815;50.950;6.920;2022-11-13T10:29:13;2.40;;;1.20;;
3601;SDS011;1815;50.950;6.920;2022-11-13T10:31:59;2.30;;;1.53;;
3601;SDS011;1815;50.950;6.920;2022-11-13T10:38:05;2.10;;;1.33;;
3601;SDS011;1815;50.950;6.920;2022-11-13T10:44:19;2.53;;;1.50;;
3601;SDS011;1815;50.950;6.920;2022-11-13T10:47:13;2.37;;;1.50;;
3601;SDS011;1815;50.950;6.920;2022-11-13T10:50:17;2.60;;;1.27;;
3601;SDS011;1815;50.950;6.920;2022-11-13T10:53:12;2.07;;;1.20;;
3601;SDS011;1815;50.950;6.920;2022-11-13T10:55:59;2.10;;;0.90;;
3601;SDS011;1815;50.950;6.920;2022-11-13T10:58:43;1.77;;;1.10;;
3601;SDS011;1815;50.950;6.920;2022-11-13T11:01:28;2.30;;;1.40;;
3601;SDS011;1815;50.950;6.920;2022-11-13T11:04:13;2.40;;;1.00;;
3601;SDS011;1815;50.950;6.920;2022-11-13T11:07:19;2.07;;;1.30;;
3601;SDS011;1815;50.950;6.920;2022-11-13T11:10:18;2.30;;;1.00;;
3601;SDS011;1815;50.950;6.920;2022-11-13T11:13:19;2.10;;;1.20;;
3601;SDS011;1815;50.950;6.920;2022-11-13T11:16:06;3.00;;;1.23;;
3601;SDS011;1815;50.950;6.920;2022-11-13T11:18:56;2.80;;;1.30;;
3601;SDS011;1815;50.950;6.920;2022-11-13T11:21:44;2.40;;;1.13;;
3601;SDS011;1815;50.950;6.920;2022-11-13T11:24:34;3.37;;;1.60;;
3601;SDS011;1815;50.950;6.920;2022-11-13T11:27:25;2.90;;;1.70;;
3601;SDS011;1815;50.950;6.920;2022-11-13T11:30:19;2.90;;;2.00;;
3601;SDS011;1815;50.950;6.920;2022-11-13T11:33:14;3.70;;;1.60;;
3601;SDS011;1815;50.950;6.920;2022-11-13T11:45:23;2.17;;;1.20;;
3601;SDS011;1815;50.950;6.920;2022-11-13T11:48:20;2.50;;;1.10;;
3601;SDS011;1815;50.950;6.920;2022-11-13T11:57:14;2.10;;;1.13;;
3601;SDS011;1815;50.950;6.920;2022-11-13T12:00:26;2.20;;;1.20;;
3601;SDS011;1815;50.950;6.920;2022-11-13T12:09:31;1.90;;;1.20;;
3601;SDS011;1815;50.950;6.920;2022-11-13T12:12:36;1.50;;;0.73;;
3601;SDS011;1815;50.950;6.920;2022-11-13T12:18:39;2.13;;;1.00;;
3601;SDS011;1815;50.950;6.920;2022-11-13T12:25:04;1.80;;;1.00;;
3601;SDS011;1815;50.950;6.920;2022-11-13T12:28:17;2.47;;;1.03;;
3601;SDS011;1815;50.950;6.920;2022-11-13T12:34:34;2.23;;;1.10;;
3601;SDS011;1815;50.950;6.920;2022-11-13T12:40:37;2.10;;;1.07;;
3601;SDS011;1815;50.950;6.920;2022-11-13T12:46:53;1.90;;;0.90;;
3601;SDS011;1815;50.950;6.920;2022-11-13T12:49:40;1.90;;;1.10;;
3601;SDS011;1815;50.950;6.920;2022-11-13T12:52:24;2.23;;;1.10;;
3601;SDS011;1815;50.950;6.920;2022-11-13T12:55:25;1.90;;;1.20;;
3601;SDS011;1815;50.950;6.920;2022-11-13T12:58:19;2.13;;;1.07;;
3601;SDS011;1815;50.950;6.920;2022-11-13T13:10:28;2.83;;;1.90;;
3601;SDS011;1815;50.950;6.920;2022-11-13T13:13:24;1.60;;;0.80;;
3601;SDS011;1815;50.950;6.920;2022-11-13T13:16:27;1.97;;;1.00;;
3601;SDS011;1815;50.950;6.920;2022-11-13T13:19:22;1.87;;;1.00;;
3601;SDS011;1815;50.950;6.920;2022-11-13T13:22:09;1.50;;;0.80;;
3601;SDS011;1815;50.950;6.920;2022-11-13T13:28:16;1.60;;;1.00;;
3601;SDS011;1815;50.950;6.920;2022-11-13T13:34:17;2.80;;;1.20;;
3601;SDS011;1815;50.950;6.920;2022-11-13T13:40:14;4.33;;;3.07;;
3601;SDS011;1815;50.950;6.920;2022-11-13T13:46:56;2.50;;;2.17;;
3601;SDS011;1815;50.950;6.920;2022-11-13T13:49:41;4.30;;;2.90;;
3601;SDS011;1815;50.950;6.920;2022-11-13T13:52:27;3.73;;;3.30;;
3601;SDS011;1815;50.950;6.920;2022-11-13T13:55:34;2.10;;;1.20;;
3601;SDS011;1815;50.950;6.920;2022-11-13T13:58:32;2.73;;;1.30;;
3601;SDS011;1815;50.950;6.920;2022-11-13T14:01:28;2.13;;;1.40;;
3601;SDS011;1815;50.950;6.920;2022-11-13T14:04:18;3.13;;;1.33;;
3601;SDS011;1815;50.950;6.920;2022-11-13T14:07:04;4.13;;;2.90;;
3601;SDS011;1815;50.950;6.920;2022-11-13T14:13:01;2.50;;;1.53;;
3601;SDS011;1815;50.950;6.920;2022-11-13T14:15:46;2.93;;;1.17;;
3601;SDS011;1815;50.950;6.920;2022-11-13T14:18:31;2.60;;;1.73;;
3601;SDS011;1815;50.950;6.920;2022-11-13T14:21:17;2.50;;;1.87;;
3601;SDS011;1815;50.950;6.920;2022-11-13T14:24:08;3.87;;;1.90;;
3601;SDS011;1815;50.950;6.920;2022-11-13T14:27:00;3.20;;;1.90;;
3601;SDS011;1815;50.950;6.920;2022-11-13T14:29:49;2.40;;;1.20;;
3601;SDS011;1815;50.950;6.920;2022-11-13T14:32:44;3.40;;;1.43;;
3601;SDS011;1815;50.950;6.920;2022-11-13T14:35:29;2.50;;;1.37;;
3601;SDS011;1815;50.950;6.920;2022-11-13T14:38:21;2.63;;;1.40;;
3601;SDS011;1815;50.950;6.920;2022-11-13T14:41:45;2.20;;;1.10;;
3601;SDS011;1815;50.950;6.920;2022-11-13T14:44:29;4.10;;;1.33;;
3601;SDS011;1815;50.950;6.920;2022-11-13T14:47:23;2.10;;;1.10;;
3601;SDS011;1815;50.950;6.920;2022-11-13T14:50:23;3.07;;;1.43;;
3601;SDS011;1815;50.950;6.920;2022-11-13T14:53:08;2.13;;;1.17;;
3601;SDS011;1815;50.950;6.920;2022-11-13T14:55:54;2.90;;;1.60;;
3601;SDS011;1815;50.950;6.920;2022-11-13T14:58:41;2.37;;;1.10;;
3601;SDS011;1815;50.950;6.920;2022-11-13T15:01:30;2.80;;;1.67;;
3601;SDS011;1815;50.950;6.920;2022-11-13T15:04:15;3.50;;;2.23;;
3601;SDS011;1815;50.950;6.920;2022-11-13T15:07:00;4.53;;;2.10;;
3601;SDS011;1815;50.950;6.920;2022-11-13T15:09:45;2.50;;;1.70;;
3601;SDS011;1815;50.950;6.920;2022-11-13T15:12:31;2.30;;;1.53;;
3601;SDS011;1815;50.950;6.920;2022-11-13T15:15:19;4.40;;;2.03;;
3601;SDS011;1815;50.950;6.920;2022-11-13T15:18:06;3.10;;;2.30;;
3601;SDS011;1815;50.950;6.920;2022-11-13T15:20:52;4.10;;;2.40;;
3601;SDS011;1815;50.950;6.920;2022-11-13T15:23:36;3.30;;;1.70;;
3601;SDS011;1815;50.950;6.920;2022-11-13T15:26:21;3.40;;;2.50;;
3601;SDS011;1815;50.950;6.920;2022-11-13T15:29:06;3.37;;;2.50;;
3601;SDS011;1815;50.950;6.920;2022-11-13T15:31:51;3.50;;;2.60;;
3601;SDS011;1815;50.950;6.920;2022-11-13T15:34:35;3.13;;;2.00;;
3601;SDS011;1815;50.950;6.920;2022-11-13T15:37:20;4.90;;;3.40;;
3601;SDS011;1815;50.950;6.920;2022-11-13T15:40:04;4.23;;;2.43;;
3601;SDS011;1815;50.950;6.920;2022-11-13T15:42:49;3.30;;;2.70;;
3601;SDS011;1815;50.950;6.920;2022-11-13T15:45:33;3.10;;;2.30;;
3601;SDS011;1815;50.950;6.920;2022-11-13T15:48:17;3.30;;;2.20;;
3601;SDS011;1815;50.950;6.920;2022-11-13T15:51:02;3.90;;;3.33;;
3601;SDS011;1815;50.950;6.920;2022-11-13T15:53:47;4.13;;;3.07;;
3601;SDS011;1815;50.950;6.920;2022-11-13T15:56:35;5.93;;;4.03;;
3601;SDS011;1815;50.950;6.920;2022-11-13T15:59:20;11.77;;;6.60;;
3601;SDS011;1815;50.950;6.920;2022-11-13T16:02:04;10.27;;;7.00;;
3601;SDS011;1815;50.950;6.920;2022-11-13T16:04:49;17.30;;;12.20;;
3601;SDS011;1815;50.950;6.920;2022-11-13T16:07:36;16.40;;;12.13;;
3601;SDS011;1815;50.950;6.920;2022-11-13T16:10:21;16.60;;;12.57;;
3601;SDS011;1815;50.950;6.920;2022-11-13T16:13:07;14.83;;;12.27;;
3601;SDS011;1815;50.950;6.920;2022-11-13T16:15:51;14.67;;;11.67;;
3601;SDS011;1815;50.950;6.920;2022-11-13T16:18:36;19.85;;;14.68;;
3601;SDS011;1815;50.950;6.920;2022-11-13T16:21:20;18.23;;;14.10;;
3601;SDS011;1815;50.950;6.920;2022-11-13T16:24:05;16.53;;;12.80;;
3601;SDS011;1815;50.950;6.920;2022-11-13T16:26:50;16.20;;;12.57;;
3601;SDS011;1815;50.950;6.920;2022-11-13T16:29:40;15.15;;;11.25;;
3601;SDS011;1815;50.950;6.920;2022-11-13T16:32:24;17.53;;;12.40;;
3601;SDS011;1815;50.950;6.920;2022-11-13T16:35:13;19.88;;;11.48;;
3601;SDS011;1815;50.950;6.920;2022-11-13T16:37:58;18.20;;;12.90;;
3601;SDS011;1815;50.950;6.920;2022-11-13T16:40:42;18.03;;;12.07;;
3601;SDS011;1815;50.950;6.920;2022-11-13T16:43:28;14.82;;;11.68;;
3601;SDS011;1815;50.950;6.920;2022-11-13T16:49:31;13.88;;;11.18;;
3601;SDS011;1815;50.950;6.920;2022-11-13T16:52:16;17.60;;;11.93;;
3601;SDS011;1815;50.950;6.920;2022-11-13T16:55:01;16.23;;;12.13;;
3601;SDS011;1815;50.950;6.920;2022-11-13T16:57:45;20.95;;;16.00;;
3601;SDS011;1815;50.950;6.920;2022-11-13T17:00:29;15.60;;;13.43;;
3601;SDS011;1815;50.950;6.920;2022-11-13T17:03:14;11.63;;;9.68;;
3601;SDS011;1815;50.950;6.920;2022-11-13T17:05:59;11.60;;;8.32;;
3601;SDS011;1815;50.950;6.920;2022-11-13T17:08:43;12.93;;;9.38;;
3601;SDS011;1815;50.950;6.920;2022-11-13T17:11:28;12.80;;;8.10;;
3601;SDS011;1815;50.950;6.920;2022-11-13T17:14:14;10.98;;;8.20;;
3601;SDS011;1815;50.950;6.920;2022-11-13T17:16:58;13.27;;;9.40;;
3601;SDS011;1815;50.950;6.920;2022-11-13T17:19:42;23.13;;;16.67;;
3601;SDS011;1815;50.950;6.920;2022-11-13T17:22:27;22.98;;;16.42;;
3601;SDS011;1815;50.950;6.920;2022-11-13T17:25:11;23.50;;;17.80;;
3601;SDS011;1815;50.950;6.920;2022-11-13T17:27:55;26.25;;;18.17;;
3601;SDS011;1815;50.950;6.920;2022-11-13T17:30:40;24.80;;;19.73;;
3601;SDS011;1815;50.950;6.920;2022-11-13T17:33:24;26.23;;;20.02;;
3601;SDS011;1815;50.950;6.920;2022-11-13T17:36:08;28.95;;;19.33;;
3601;SDS011;1815;50.950;6.920;2022-11-13T17:38:58;26.15;;;20.80;;
3601;SDS011;1815;50.950;6.920;2022-11-13T17:41:44;29.02;;;19.67;;
3601;SDS011;1815;50.950;6.920;2022-11-13T17:44:38;29.65;;;20.13;;
3601;SDS011;1815;50.950;6.920;2022-11-13T17:47:49;25.58;;;17.27;;
3601;SDS011;1815;50.950;6.920;2022-11-13T17:50:54;25.63;;;17.35;;
3601;SDS011;1815;50.950;6.920;2022-11-13T17:53:47;24.08;;;17.25;;
3601;SDS011;1815;50.950;6.920;2022-11-13T17:56:43;22.10;;;16.08;;
3601;SDS011;1815;50.950;6.920;2022-11-13T17:59:49;21.95;;;18.83;;
3601;SDS011;1815;50.950;6.920;2022-11-13T18:02:41;22.98;;;17.67;;
3601;SDS011;1815;50.950;6.920;2022-11-13T18:05:31;24.02;;;17.92;;
3601;SDS011;1815;50.950;6.920;2022-11-13T18:08:23;25.42;;;18.65;;
3601;SDS011;1815;50.950;6.920;2022-11-13T18:11:20;25.73;;;19.27;;
3601;SDS011;1815;50.950;6.920;2022-11-13T18:14:07;23.60;;;17.35;;
3601;SDS011;1815;50.950;6.920;2022-11-13T18:17:04;21.15;;;16.27;;
3601;SDS011;1815;50.950;6.920;2022-11-13T18:20:18;18.13;;;13.82;;
3601;SDS011;1815;50.950;6.920;2022-11-13T18:23:29;21.05;;;15.10;;
3601;SDS011;1815;50.950;6.920;2022-11-13T18:26:24;17.92;;;14.00;;
3601;SDS011;1815;50.950;6.920;2022-11-13T18:29:13;19.23;;;13.00;;
3601;SDS011;1815;50.950;6.920;2022-11-13T18:32:04;17.50;;;12.52;;
3601;SDS011;1815;50.950;6.920;2022-11-13T18:34:51;15.48;;;11.85;;
3601;SDS011;1815;50.950;6.920;2022-11-13T18:37:39;18.38;;;12.88;;
3601;SDS011;1815;50.950;6.920;2022-11-13T18:40:27;19.00;;;11.23;;
3601;SDS011;1815;50.950;6.920;2022-11-13T18:43:32;16.10;;;11.00;;